createdAt,value
2023-01-07T00:01:45.011Z,47.47
2023-01-07T00:04:17.168Z,49.58
2023-01-07T00:06:47.460Z,47.63
2023-01-07T00:09:17.816Z,50.45
2023-01-07T00:14:16.241Z,53.70
2023-01-07T00:16:45.375Z,47.58
2023-01-07T00:19:17.158Z,51.00
2023-01-07T00:21:46.181Z,54.05
2023-01-07T00:24:17.499Z,64.60
2023-01-07T00:26:47.408Z,52.13
2023-01-07T00:29:17.189Z,65.45
2023-01-07T00:31:45.975Z,75.32
2023-01-07T00:34:16.955Z,95.65
2023-01-07T00:36:47.255Z,101.57
2023-01-07T00:39:18.032Z,112.90
2023-01-07T00:42:01.550Z,146.75
2023-01-07T00:44:30.675Z,163.77
2023-01-07T00:47:00.008Z,197.73
2023-01-07T00:49:30.763Z,224.65
2023-01-07T00:51:59.948Z,158.27
2023-01-07T00:54:29.062Z,264.13
2023-01-07T00:56:58.178Z,135.63
2023-01-07T00:59:28.159Z,161.20
2023-01-07T01:01:56.991Z,201.80
2023-01-07T01:04:26.916Z,271.38
2023-01-07T01:06:57.472Z,194.23
2023-01-07T01:09:26.785Z,254.07
2023-01-07T01:11:55.883Z,200.13
2023-01-07T01:14:25.559Z,253.30
2023-01-07T01:16:54.236Z,208.95
2023-01-07T01:19:23.273Z,180.38
2023-01-07T01:21:52.260Z,164.25
2023-01-07T01:24:22.734Z,194.05
2023-01-07T01:26:51.665Z,173.65
2023-01-07T01:29:20.840Z,208.10
2023-01-07T01:31:50.319Z,174.95
2023-01-07T01:34:19.722Z,215.00
2023-01-07T01:36:48.934Z,212.95
2023-01-07T01:39:20.657Z,303.17
2023-01-07T01:41:51.135Z,260.50
2023-01-07T01:44:38.810Z,230.82
2023-01-07T01:47:16.669Z,230.60
2023-01-07T01:49:47.851Z,188.55
2023-01-07T01:52:19.191Z,152.60
2023-01-07T01:54:51.552Z,203.15
2023-01-07T01:57:23.284Z,138.25
2023-01-07T01:59:56.215Z,229.40
2023-01-07T02:02:27.736Z,205.67
2023-01-07T02:04:56.995Z,154.73
2023-01-07T02:07:26.495Z,139.73
2023-01-07T02:10:01.676Z,197.38
2023-01-07T02:12:45.295Z,187.25
2023-01-07T02:15:20.121Z,167.50
2023-01-07T02:18:03.456Z,193.05
2023-01-07T02:20:48.288Z,194.40
2023-01-07T02:23:56.491Z,181.32
2023-01-07T02:27:12.330Z,232.95
2023-01-07T02:30:21.209Z,148.57
2023-01-07T02:33:22.004Z,236.82
2023-01-07T02:36:08.149Z,308.20
2023-01-07T02:38:45.167Z,276.13
2023-01-07T02:41:19.488Z,341.92
2023-01-07T02:43:55.965Z,418.77
2023-01-07T02:46:31.221Z,279.58
2023-01-07T02:49:02.647Z,187.18
2023-01-07T02:51:35.670Z,205.15
2023-01-07T02:54:05.380Z,298.30
2023-01-07T02:56:43.648Z,215.25
2023-01-07T02:59:37.935Z,226.10
2023-01-07T03:02:25.465Z,353.77
2023-01-07T03:05:04.651Z,316.30
2023-01-07T03:10:12.742Z,309.10
2023-01-07T03:12:44.941Z,140.32
2023-01-07T03:15:16.939Z,453.50
2023-01-07T03:17:50.240Z,286.48
2023-01-07T03:20:22.135Z,294.95
2023-01-07T03:22:51.413Z,218.30
2023-01-07T03:25:20.821Z,396.40
2023-01-07T03:27:50.714Z,354.37
2023-01-07T03:30:21.196Z,437.80
2023-01-07T03:32:54.158Z,390.42
2023-01-07T03:35:24.984Z,325.65
2023-01-07T03:37:54.816Z,583.72
2023-01-07T03:40:23.944Z,392.80
2023-01-07T03:42:51.903Z,418.27
2023-01-07T03:45:25.915Z,388.13
2023-01-07T03:47:58.469Z,444.58
2023-01-07T03:50:35.324Z,463.25
2023-01-07T03:53:04.626Z,464.83
2023-01-07T03:55:36.359Z,354.40
2023-01-07T03:58:05.791Z,344.35
2023-01-07T04:00:34.975Z,509.75
2023-01-07T04:03:14.319Z,175.38
2023-01-07T04:05:49.177Z,180.07
2023-01-07T04:08:20.089Z,160.63
2023-01-07T04:10:48.778Z,164.77
2023-01-07T04:13:19.719Z,119.47
2023-01-07T04:15:51.144Z,123.68
2023-01-07T04:18:20.078Z,114.80
2023-01-07T04:20:50.679Z,107.93
2023-01-07T04:23:20.161Z,99.88
2023-01-07T04:25:51.661Z,90.80
2023-01-07T04:28:24.492Z,89.00
2023-01-07T04:30:53.754Z,98.13
2023-01-07T04:33:24.118Z,91.22
2023-01-07T04:35:54.551Z,73.05
2023-01-07T04:38:24.825Z,76.22
2023-01-07T04:40:55.663Z,71.10
2023-01-07T04:43:25.185Z,75.28
2023-01-07T04:45:54.160Z,83.38
2023-01-07T04:48:23.450Z,73.45
2023-01-07T04:50:57.145Z,71.82
2023-01-07T04:53:26.272Z,61.15
2023-01-07T04:55:55.185Z,65.28
2023-01-07T04:58:24.724Z,58.90
2023-01-07T05:00:57.668Z,71.10
2023-01-07T05:03:28.195Z,69.25
2023-01-07T05:05:59.311Z,67.20
2023-01-07T05:08:29.228Z,60.28
2023-01-07T05:10:58.415Z,57.25
2023-01-07T05:13:27.013Z,58.60
2023-01-07T05:15:55.957Z,54.92
2023-01-07T05:18:25.528Z,35.13
2023-01-07T05:20:54.953Z,54.15
2023-01-07T05:23:25.421Z,51.22
2023-01-07T05:25:54.824Z,50.72
2023-01-07T05:28:23.982Z,52.80
2023-01-07T05:30:53.070Z,50.03
2023-01-07T05:33:22.381Z,50.10
2023-01-07T05:35:51.740Z,50.42
2023-01-07T05:38:20.805Z,49.60
2023-01-07T05:40:51.148Z,51.03
2023-01-07T05:43:24.548Z,46.72
2023-01-07T05:45:53.599Z,49.78
2023-01-07T05:48:22.560Z,46.17
2023-01-07T05:50:51.651Z,49.78
2023-01-07T05:53:20.569Z,47.40
2023-01-07T05:55:50.685Z,45.90
2023-01-07T05:58:19.684Z,40.50
2023-01-07T06:00:48.925Z,47.13
2023-01-07T06:03:18.038Z,45.28
2023-01-07T06:05:47.013Z,40.33
2023-01-07T06:08:16.323Z,40.97
2023-01-07T06:10:45.621Z,47.55
2023-01-07T06:13:16.102Z,41.17
2023-01-07T06:15:45.209Z,41.85
2023-01-07T06:18:14.159Z,38.65
2023-01-07T06:20:43.169Z,43.17
2023-01-07T06:23:12.139Z,44.55
2023-01-07T06:25:40.779Z,39.88
2023-01-07T06:28:09.832Z,41.70
2023-01-07T06:30:40.318Z,42.35
2023-01-07T06:33:09.282Z,45.10
2023-01-07T06:35:38.173Z,43.28
2023-01-07T06:38:07.148Z,44.92
2023-01-07T06:40:35.945Z,47.53
2023-01-07T06:43:04.918Z,38.15
2023-01-07T06:45:33.856Z,36.13
2023-01-07T06:48:04.288Z,40.17
2023-01-07T06:50:33.406Z,36.70
2023-01-07T06:53:02.337Z,50.47
2023-01-07T06:55:31.017Z,37.83
2023-01-07T06:58:00.049Z,37.22
2023-01-07T07:00:29.088Z,39.38
2023-01-07T07:02:58.094Z,35.33
2023-01-07T07:05:29.136Z,37.58
2023-01-07T07:07:57.766Z,41.20
2023-01-07T07:10:26.732Z,41.85
2023-01-07T07:12:55.781Z,42.60
2023-01-07T07:15:24.779Z,46.42
2023-01-07T07:17:53.807Z,45.00
2023-01-07T07:20:22.781Z,40.38
2023-01-07T07:22:52.957Z,46.15
2023-01-07T07:25:22.417Z,45.55
2023-01-07T07:27:51.345Z,42.83
2023-01-07T07:30:20.668Z,40.65
2023-01-07T07:32:49.612Z,50.80
2023-01-07T07:35:18.885Z,44.35
2023-01-07T07:37:47.504Z,59.22
2023-01-07T07:40:18.210Z,53.83
2023-01-07T07:43:11.713Z,52.10
2023-01-07T07:45:36.243Z,52.60
2023-01-07T07:48:07.135Z,62.10
2023-01-07T07:50:36.726Z,68.82
2023-01-07T07:53:10.034Z,73.40
2023-01-07T07:55:40.989Z,62.95
2023-01-07T07:58:09.983Z,71.45
2023-01-07T08:00:38.994Z,70.90
2023-01-07T08:03:08.295Z,51.97
2023-01-07T08:05:37.329Z,51.05
2023-01-07T08:08:08.517Z,55.30
2023-01-07T08:10:37.202Z,60.10
2023-01-07T08:13:07.624Z,57.65
2023-01-07T08:15:36.594Z,47.95
2023-01-07T08:18:07.075Z,50.13
2023-01-07T08:20:38.183Z,53.72
2023-01-07T08:23:08.384Z,49.20
2023-01-07T08:25:37.120Z,46.25
2023-01-07T08:28:07.795Z,41.92
2023-01-07T08:30:36.819Z,47.95
2023-01-07T08:33:06.671Z,47.83
2023-01-07T08:35:35.763Z,47.72
2023-01-07T08:38:05.808Z,47.25
2023-01-07T08:40:34.778Z,42.63
2023-01-07T08:43:05.219Z,41.60
2023-01-07T08:45:35.725Z,43.15
2023-01-07T08:48:04.824Z,40.95
2023-01-07T08:50:34.510Z,39.22
2023-01-07T08:53:03.433Z,44.80
2023-01-07T08:55:32.041Z,47.10
2023-01-07T08:58:01.063Z,46.88
2023-01-07T09:00:30.141Z,41.92
2023-01-07T09:03:00.648Z,38.47
2023-01-07T09:05:29.673Z,39.63
2023-01-07T09:07:58.747Z,39.72
2023-01-07T09:10:27.377Z,37.17
2023-01-07T09:12:56.334Z,42.25
2023-01-07T09:15:25.371Z,46.42
2023-01-07T09:20:25.716Z,37.75
2023-01-07T09:22:54.301Z,40.50
2023-01-07T09:25:23.360Z,34.70
2023-01-07T09:27:52.361Z,39.97
2023-01-07T09:30:21.355Z,38.20
2023-01-07T09:32:50.311Z,42.95
2023-01-07T09:35:19.467Z,40.50
2023-01-07T09:37:49.582Z,38.47
2023-01-07T09:40:23.999Z,37.58
2023-01-07T09:42:58.009Z,35.05
2023-01-07T09:45:28.764Z,34.03
2023-01-07T09:47:59.230Z,35.22
2023-01-07T09:50:47.273Z,33.03
2023-01-07T09:53:20.561Z,33.75
2023-01-07T09:56:10.649Z,39.67
2023-01-07T09:58:43.561Z,40.97
2023-01-07T10:01:22.709Z,36.47
2023-01-07T10:03:59.588Z,44.88
2023-01-07T10:06:42.969Z,39.40
2023-01-07T10:09:20.817Z,40.92
2023-01-07T10:11:57.745Z,51.90
2023-01-07T10:14:44.624Z,47.60
2023-01-07T10:17:22.141Z,47.72
2023-01-07T10:19:56.965Z,47.15
2023-01-07T10:22:32.298Z,42.97
2023-01-07T10:25:07.463Z,40.70
2023-01-07T10:27:40.176Z,41.50
2023-01-07T10:30:14.690Z,42.47
2023-01-07T10:32:43.658Z,41.95
2023-01-07T10:35:18.635Z,38.00
2023-01-07T10:37:47.281Z,39.97
2023-01-07T10:40:29.544Z,38.70
2023-01-07T10:43:03.014Z,29.45
2023-01-07T10:46:15.656Z,33.50
2023-01-07T10:49:17.086Z,27.02
2023-01-07T10:51:53.761Z,26.02
2023-01-07T10:54:49.151Z,25.42
2023-01-07T10:57:22.311Z,26.05
2023-01-07T10:59:52.291Z,27.05
2023-01-07T11:02:23.471Z,29.38
2023-01-07T11:04:52.227Z,30.27
2023-01-07T11:07:30.115Z,29.10
2023-01-07T11:10:02.034Z,28.15
2023-01-07T11:12:37.325Z,30.23
2023-01-07T11:15:09.481Z,32.75
2023-01-07T11:17:41.874Z,31.83
2023-01-07T11:20:12.456Z,29.40
2023-01-07T11:22:41.286Z,34.00
2023-01-07T11:25:30.030Z,32.55
2023-01-07T11:28:03.566Z,32.97
2023-01-07T11:30:34.229Z,38.78
2023-01-07T11:33:05.575Z,33.47
2023-01-07T11:35:34.924Z,30.58
2023-01-07T11:38:03.887Z,31.80
2023-01-07T11:40:33.612Z,26.77
2023-01-07T11:43:05.436Z,26.05
2023-01-07T11:45:37.869Z,27.48
2023-01-07T11:48:09.945Z,32.30
2023-01-07T11:50:40.232Z,25.75
2023-01-07T11:55:41.892Z,21.13
2023-01-07T11:58:27.781Z,20.03
2023-01-07T12:01:15.535Z,19.48
2023-01-07T12:03:45.786Z,25.25
2023-01-07T12:06:20.295Z,17.33
2023-01-07T12:08:55.368Z,21.02
2023-01-07T12:11:31.556Z,17.05
2023-01-07T12:14:05.698Z,19.33
2023-01-07T12:16:35.153Z,20.45
2023-01-07T12:19:18.653Z,18.38
2023-01-07T12:21:55.559Z,17.13
2023-01-07T12:24:48.456Z,24.38
2023-01-07T12:27:27.588Z,23.05
2023-01-07T12:30:09.106Z,26.58
2023-01-07T12:32:48.004Z,27.52
2023-01-07T12:35:20.446Z,23.92
2023-01-07T12:37:53.284Z,26.10
2023-01-07T12:40:28.685Z,32.13
2023-01-07T12:43:02.613Z,31.45
2023-01-07T12:45:36.611Z,31.63
2023-01-07T12:48:08.463Z,29.88
2023-01-07T12:50:42.485Z,33.88
2023-01-07T12:53:14.504Z,33.40
2023-01-07T12:55:45.670Z,26.42
2023-01-07T12:58:20.329Z,31.15
2023-01-07T13:00:54.317Z,25.00
2023-01-07T13:03:39.368Z,27.13
2023-01-07T13:06:11.757Z,32.33
2023-01-07T13:08:44.992Z,32.50
2023-01-07T13:11:41.619Z,31.80
2023-01-07T13:14:18.152Z,23.50
2023-01-07T13:16:48.648Z,28.30
2023-01-07T13:19:17.833Z,24.83
2023-01-07T13:21:48.859Z,28.15
2023-01-07T13:24:56.513Z,24.05
2023-01-07T13:27:30.367Z,30.10
2023-01-07T13:30:18.439Z,31.48
2023-01-07T13:32:59.344Z,32.72
2023-01-07T13:35:50.130Z,33.63
2023-01-07T13:41:08.147Z,40.03
2023-01-07T13:44:01.868Z,40.47
2023-01-07T13:46:33.526Z,38.72
2023-01-07T13:49:04.141Z,34.78
2023-01-07T13:51:34.964Z,19.10
2023-01-07T13:54:04.194Z,32.60
2023-01-07T13:56:40.688Z,36.20
2023-01-07T13:59:49.218Z,42.13
2023-01-07T14:02:21.383Z,44.42
2023-01-07T14:04:53.245Z,44.55
2023-01-07T14:07:22.189Z,52.03
2023-01-07T14:09:51.159Z,46.35
2023-01-07T14:12:53.468Z,43.20
2023-01-07T14:15:45.762Z,39.42
2023-01-07T14:18:57.240Z,50.63
2023-01-07T14:21:44.736Z,41.83
2023-01-07T14:24:35.002Z,40.65
2023-01-07T14:27:12.699Z,33.65
2023-01-07T14:29:43.446Z,38.42
2023-01-07T14:32:31.253Z,47.33
2023-01-07T14:35:02.436Z,38.33
2023-01-07T14:37:37.712Z,38.28
2023-01-07T14:40:42.953Z,38.30
2023-01-07T14:43:49.979Z,38.40
2023-01-07T14:47:01.119Z,39.55
2023-01-07T14:49:56.414Z,37.05
2023-01-07T14:53:05.497Z,36.42
2023-01-07T14:55:52.835Z,30.02
2023-01-07T14:58:49.950Z,37.58
2023-01-07T15:01:34.922Z,37.97
2023-01-07T15:04:26.131Z,44.00
2023-01-07T15:06:57.273Z,42.72
2023-01-07T15:09:46.841Z,44.80
2023-01-07T15:12:48.395Z,40.20
2023-01-07T15:15:39.771Z,46.05
2023-01-07T15:18:09.570Z,35.78
2023-01-07T15:20:48.634Z,42.28
2023-01-07T15:23:23.373Z,44.47
2023-01-07T15:25:57.620Z,53.42
2023-01-07T15:28:37.265Z,54.63
2023-01-07T15:31:11.286Z,53.53
2023-01-07T15:33:54.793Z,49.58
2023-01-07T15:36:24.082Z,36.97
2023-01-07T15:38:54.687Z,40.50
2023-01-07T15:41:29.911Z,51.40
2023-01-07T15:44:01.287Z,43.58
2023-01-07T15:46:31.867Z,39.80
2023-01-07T15:49:11.010Z,39.60
2023-01-07T15:51:41.508Z,44.15
2023-01-07T15:54:24.724Z,46.35
2023-01-07T15:56:55.796Z,42.00
2023-01-07T15:59:28.572Z,44.35
2023-01-07T16:02:06.187Z,40.85
2023-01-07T16:04:38.372Z,42.80
2023-01-07T16:07:07.451Z,56.25
2023-01-07T16:09:36.385Z,41.28
2023-01-07T16:12:21.011Z,41.63
2023-01-07T16:14:51.498Z,42.70
2023-01-07T16:17:20.957Z,44.08
2023-01-07T16:19:49.573Z,44.20
2023-01-07T16:22:20.817Z,47.47
2023-01-07T16:24:51.440Z,50.38
2023-01-07T16:27:24.858Z,45.55
2023-01-07T16:29:58.302Z,42.83
2023-01-07T16:32:27.381Z,40.65
2023-01-07T16:35:01.897Z,40.40
2023-01-07T16:37:31.424Z,45.67
2023-01-07T16:40:00.702Z,43.17
2023-01-07T16:42:29.776Z,43.30
2023-01-07T16:45:02.389Z,38.00
2023-01-07T16:47:32.557Z,38.75
2023-01-07T16:50:36.406Z,43.38
2023-01-07T16:53:05.470Z,39.25
2023-01-07T16:55:55.492Z,45.60
2023-01-07T16:58:29.285Z,44.78
2023-01-07T17:01:01.197Z,39.92
2023-01-07T17:03:31.202Z,37.15
2023-01-07T17:06:02.760Z,41.47
2023-01-07T17:08:33.478Z,39.30
2023-01-07T17:11:06.010Z,40.47
2023-01-07T17:13:37.279Z,45.53
2023-01-07T17:16:31.609Z,41.40
2023-01-07T17:19:24.679Z,43.42
2023-01-07T17:21:54.231Z,40.28
2023-01-07T17:24:48.452Z,40.65
2023-01-07T17:27:25.414Z,45.75
2023-01-07T17:29:54.804Z,40.75
2023-01-07T17:32:25.537Z,42.47
2023-01-07T17:34:54.103Z,41.92
2023-01-07T17:37:23.063Z,42.97
2023-01-07T17:39:52.054Z,43.03
2023-01-07T17:42:39.838Z,49.08
2023-01-07T17:45:11.455Z,44.30
2023-01-07T17:47:41.865Z,42.13
2023-01-07T17:50:13.256Z,43.55
2023-01-07T17:52:43.577Z,47.05
2023-01-07T17:55:16.398Z,46.13
2023-01-07T17:57:45.489Z,41.45
2023-01-07T18:00:17.362Z,39.58
2023-01-07T18:02:47.927Z,48.10
2023-01-07T18:05:19.102Z,44.67
2023-01-07T18:07:48.187Z,41.45
2023-01-07T18:10:18.919Z,39.40
2023-01-07T18:12:47.128Z,45.13
2023-01-07T18:15:19.468Z,48.58
2023-01-07T18:17:49.946Z,42.17
2023-01-07T18:20:19.835Z,42.08
2023-01-07T18:22:48.918Z,49.85
2023-01-07T18:25:20.265Z,46.13
2023-01-07T18:27:52.829Z,48.50
2023-01-07T18:30:23.323Z,50.67
2023-01-07T18:32:53.898Z,46.65
2023-01-07T18:35:23.901Z,57.33
2023-01-07T18:37:52.802Z,50.40
2023-01-07T18:40:21.945Z,49.55
2023-01-07T18:42:50.871Z,48.33
2023-01-07T18:45:20.129Z,49.55
2023-01-07T18:47:49.609Z,50.55
2023-01-07T18:50:20.197Z,52.57
2023-01-07T18:52:48.909Z,71.43
2023-01-07T18:55:19.597Z,60.88
2023-01-07T18:57:48.658Z,48.67
2023-01-07T19:00:18.476Z,67.55
2023-01-07T19:02:47.461Z,71.18
2023-01-07T19:05:16.529Z,56.78
2023-01-07T19:07:46.603Z,80.22
2023-01-07T19:10:15.706Z,83.20
2023-01-07T19:12:44.695Z,75.45
2023-01-07T19:15:13.744Z,73.82
2023-01-07T19:17:42.744Z,81.72
2023-01-07T19:20:15.194Z,82.47
2023-01-07T19:22:44.249Z,73.20
2023-01-07T19:25:14.744Z,77.63
2023-01-07T19:27:43.981Z,80.90
2023-01-07T19:30:14.020Z,79.13
2023-01-07T19:32:43.082Z,76.30
2023-01-07T19:35:12.174Z,92.30
2023-01-07T19:37:41.062Z,89.35
2023-01-07T19:40:12.513Z,95.53
2023-01-07T19:42:43.132Z,87.00
2023-01-07T19:45:12.556Z,71.80
2023-01-07T19:47:42.000Z,97.40
2023-01-07T19:50:11.381Z,87.33
2023-01-07T19:52:40.052Z,83.70
2023-01-07T19:55:09.659Z,74.47
2023-01-07T19:57:38.589Z,81.47
2023-01-07T20:00:10.943Z,75.15
2023-01-07T20:02:40.147Z,84.07
2023-01-07T20:05:09.896Z,76.57
2023-01-07T20:07:38.725Z,62.10
2023-01-07T20:10:08.882Z,80.15
2023-01-07T20:12:38.115Z,82.18
2023-01-07T20:15:10.260Z,77.38
2023-01-07T20:17:39.420Z,83.88
2023-01-07T20:20:10.004Z,85.90
2023-01-07T20:25:10.248Z,86.00
2023-01-07T20:30:11.302Z,76.93
2023-01-07T20:32:40.288Z,75.85
2023-01-07T20:35:10.653Z,75.90
2023-01-07T20:37:41.814Z,78.40
2023-01-07T20:40:12.553Z,77.88
2023-01-07T20:42:41.699Z,88.20
2023-01-07T20:45:13.201Z,79.10
2023-01-07T20:47:42.320Z,73.03
2023-01-07T20:50:15.397Z,80.13
2023-01-07T20:52:44.179Z,70.70
2023-01-07T20:55:13.260Z,73.10
2023-01-07T20:57:42.414Z,78.68
2023-01-07T21:00:14.237Z,69.25
2023-01-07T21:02:43.622Z,73.72
2023-01-07T21:05:12.929Z,77.07
2023-01-07T21:07:43.507Z,54.90
2023-01-07T21:10:12.815Z,79.93
2023-01-07T21:12:43.266Z,75.75
2023-01-07T21:15:15.817Z,71.07
2023-01-07T21:17:47.501Z,79.30
2023-01-07T21:20:17.281Z,79.07
2023-01-07T21:22:47.654Z,73.50
2023-01-07T21:25:16.955Z,72.22
2023-01-07T21:27:48.610Z,75.60
2023-01-07T21:30:19.703Z,77.28
2023-01-07T21:32:49.641Z,75.65
2023-01-07T21:35:18.859Z,78.25
2023-01-07T21:37:47.536Z,65.40
2023-01-07T21:40:16.608Z,77.10
2023-01-07T21:42:45.553Z,75.30
2023-01-07T21:45:14.722Z,87.15
2023-01-07T21:47:45.447Z,78.75
2023-01-07T21:50:15.158Z,79.00
2023-01-07T21:52:44.156Z,81.72
2023-01-07T21:55:13.104Z,52.60
2023-01-07T21:57:42.129Z,84.82
2023-01-07T22:00:12.305Z,89.50
2023-01-07T22:02:41.265Z,82.43
2023-01-07T22:05:12.120Z,87.53
2023-01-07T22:07:40.998Z,79.43
2023-01-07T22:10:11.384Z,87.07
2023-01-07T22:12:40.325Z,72.22
2023-01-07T22:15:09.885Z,85.85
2023-01-07T22:17:38.889Z,78.82
2023-01-07T22:20:09.677Z,78.53
2023-01-07T22:25:09.697Z,83.72
2023-01-07T22:27:38.640Z,82.05
2023-01-07T22:30:09.206Z,80.22
2023-01-07T22:32:38.191Z,69.60
2023-01-07T22:35:07.703Z,101.65
2023-01-07T22:37:36.614Z,82.82
2023-01-07T22:40:08.408Z,82.82
2023-01-07T22:42:40.515Z,93.30
2023-01-07T22:45:12.196Z,92.68
2023-01-07T22:47:44.088Z,91.32
2023-01-07T22:50:14.675Z,79.55
2023-01-07T22:55:14.255Z,92.13
2023-01-07T22:57:43.419Z,98.72
2023-01-07T23:00:38.248Z,99.65
2023-01-07T23:03:07.272Z,106.07
2023-01-07T23:05:37.964Z,110.88
2023-01-07T23:08:08.245Z,122.07
2023-01-07T23:10:38.913Z,118.38
2023-01-07T23:13:08.507Z,102.03
2023-01-07T23:15:38.869Z,79.00
2023-01-07T23:18:09.693Z,136.48
2023-01-07T23:20:40.535Z,125.22
2023-01-07T23:23:09.998Z,77.60
2023-01-07T23:25:45.736Z,117.65
2023-01-07T23:28:14.898Z,62.08
2023-01-07T23:30:44.145Z,127.88
2023-01-07T23:33:13.314Z,140.18
2023-01-07T23:35:42.329Z,121.38
2023-01-07T23:38:11.290Z,137.68
2023-01-07T23:40:41.558Z,141.23
2023-01-07T23:43:10.503Z,133.43
2023-01-07T23:45:39.509Z,132.38
2023-01-07T23:48:08.609Z,130.95
2023-01-07T23:50:37.612Z,97.75
2023-01-07T23:53:06.610Z,135.13
2023-01-07T23:55:35.170Z,83.90
2023-01-07T23:58:05.645Z,116.97
